Time;durP1;ratioP1;P1;durP2;ratioP2;P2;SDS_P1;SDS_P2;PMS_P1;PMS_P2;Temp;Humidity;BMP_temperature;BMP_pressure;BME280_temperature;BME280_humidity;BME280_pressure;Samples;Min_cycle;Max_cycle;Signal;HPM_P1;HPM_P2
2023/04/02 00:01:04;;;;;;;0.00;0.00;;;;;;;;;;5015127;28;20073;-90
2023/04/02 00:03:43;;;;;;;0.00;0.00;;;;;;;;;;5014948;28;20599;-89
2023/04/02 00:06:39;;;;;;;0.00;0.00;;;;;;;;;;5031766;28;20059;-89
2023/04/02 00:09:14;;;;;;;0.22;0.15;;;;;;;;;;5015744;28;20460;-89
2023/04/02 00:11:45;;;;;;;0.43;0.00;;;;;;;;;;5035543;28;20052;-89
2023/04/02 00:14:21;;;;;;;0.00;0.00;;;;;;;;;;5019488;28;20042;-89
2023/04/02 00:16:47;;;;;;;0.00;0.00;;;;;;;;;;5032530;28;20052;-89
2023/04/02 00:19:16;;;;;;;0.00;0.00;;;;;;;;;;5035458;28;20117;-89
2023/04/02 00:21:43;;;;;;;0.00;0.00;;;;;;;;;;5035694;28;20045;-88
2023/04/02 00:24:13;;;;;;;0.32;0.22;;;;;;;;;;5035099;28;20051;-88
2023/04/02 00:26:42;;;;;;;0.00;0.00;;;;;;;;;;5035212;28;20135;-89
2023/04/02 00:29:12;;;;;;;0.55;0.10;;;;;;;;;;5035268;28;20389;-90
2023/04/02 00:31:41;;;;;;;0.00;0.00;;;;;;;;;;5035152;28;20477;-90
2023/04/02 00:34:07;;;;;;;0.00;0.00;;;;;;;;;;5018463;28;20041;-89
2023/04/02 00:36:34;;;;;;;0.10;0.00;;;;;;;;;;5035336;28;20134;-89
2023/04/02 00:39:02;;;;;;;0.00;0.00;;;;;;;;;;5018321;28;20034;-89
2023/04/02 00:41:29;;;;;;;1.65;0.47;;;;;;;;;;5018913;28;20087;-89
2023/04/02 00:43:56;;;;;;;0.00;0.00;;;;;;;;;;5034716;28;20067;-90
2023/04/02 00:46:25;;;;;;;0.00;0.00;;;;;;;;;;5035016;28;20049;-90
2023/04/02 00:49:17;;;;;;;0.00;0.00;;;;;;;;;;5018125;28;20095;-89
2023/04/02 00:51:46;;;;;;;0.00;0.00;;;;;;;;;;5015561;28;20144;-89
2023/04/02 00:54:16;;;;;;;0.00;0.00;;;;;;;;;;5034542;28;20393;-89
2023/04/02 00:56:43;;;;;;;0.00;0.00;;;;;;;;;;5034953;28;20044;-89
2023/04/02 00:59:32;;;;;;;0.00;0.00;;;;;;;;;;5034354;28;20037;-88
2023/04/02 01:02:16;;;;;;;0.00;0.00;;;;;;;;;;5026543;28;20136;-88
2023/04/02 01:04:42;;;;;;;0.00;0.00;;;;;;;;;;5018471;28;20507;-89
2023/04/02 01:07:09;;;;;;;0.15;0.08;;;;;;;;;;5017703;28;20174;-89
2023/04/02 01:09:46;;;;;;;0.00;0.00;;;;;;;;;;5017809;28;20048;-88
2023/04/02 01:12:18;;;;;;;0.00;0.00;;;;;;;;;;5017919;28;20401;-90
2023/04/02 01:14:47;;;;;;;0.00;0.00;;;;;;;;;;5017917;28;20095;-89
2023/04/02 01:17:17;;;;;;;0.00;0.00;;;;;;;;;;5034210;28;20033;-91
2023/04/02 01:20:06;;;;;;;0.00;0.00;;;;;;;;;;5033762;28;20053;-89
2023/04/02 01:22:50;;;;;;;0.00;0.00;;;;;;;;;;5017339;28;20052;-90
2023/04/02 01:25:19;;;;;;;0.00;0.00;;;;;;;;;;5017589;28;20084;-89
2023/04/02 01:27:50;;;;;;;0.00;0.00;;;;;;;;;;5034103;28;20052;-90
2023/04/02 01:30:17;;;;;;;0.30;0.30;;;;;;;;;;5034158;28;20103;-88
2023/04/02 01:32:43;;;;;;;0.00;0.00;;;;;;;;;;5033559;28;20041;-89
2023/04/02 01:35:10;;;;;;;0.00;0.00;;;;;;;;;;5033875;28;20053;-89
2023/04/02 01:37:48;;;;;;;0.52;0.20;;;;;;;;;;5033663;28;20040;-89
2023/04/02 01:40:15;;;;;;;0.00;0.00;;;;;;;;;;5017442;28;20037;-90
2023/04/02 01:42:41;;;;;;;0.00;0.00;;;;;;;;;;5017383;28;20553;-89
2023/04/02 01:45:15;;;;;;;0.00;0.00;;;;;;;;;;5017189;28;20202;-89
2023/04/02 01:47:42;;;;;;;0.00;0.00;;;;;;;;;;5017293;28;20054;-90
2023/04/02 01:50:30;;;;;;;0.00;0.00;;;;;;;;;;5016759;28;20188;-89
2023/04/02 01:52:57;;;;;;;0.00;0.00;;;;;;;;;;5016851;28;20057;-90
2023/04/02 01:55:43;;;;;;;0.00;0.00;;;;;;;;;;5033392;28;20045;-89
2023/04/02 01:58:10;;;;;;;0.00;0.00;;;;;;;;;;5016571;28;20037;-89
2023/04/02 02:00:50;;;;;;;0.00;0.00;;;;;;;;;;5017343;28;20045;-90
2023/04/02 02:03:16;;;;;;;0.00;0.00;;;;;;;;;;5032894;28;20041;-90
2023/04/02 02:05:46;;;;;;;0.00;0.00;;;;;;;;;;5033370;28;20037;-90
2023/04/02 02:08:21;;;;;;;0.35;0.20;;;;;;;;;;5033493;28;20042;-89
2023/04/02 02:10:49;;;;;;;0.00;0.00;;;;;;;;;;5016901;28;20068;-88
2023/04/02 02:13:15;;;;;;;0.00;0.00;;;;;;;;;;5033012;28;20038;-87
2023/04/02 02:15:41;;;;;;;0.00;0.00;;;;;;;;;;5033098;28;20056;-89
2023/04/02 02:18:10;;;;;;;0.47;0.22;;;;;;;;;;5032966;28;20041;-88
2023/04/02 02:20:36;;;;;;;0.00;0.00;;;;;;;;;;5016222;28;20041;-89
2023/04/02 02:23:03;;;;;;;0.00;0.00;;;;;;;;;;5032652;28;20068;-89
2023/04/02 02:25:31;;;;;;;0.45;0.45;;;;;;;;;;5016280;28;20045;-89
2023/04/02 02:28:03;;;;;;;0.00;0.00;;;;;;;;;;5032813;28;20041;-90
2023/04/02 02:30:32;;;;;;;0.00;0.00;;;;;;;;;;5016472;28;20077;-90
2023/04/02 02:33:13;;;;;;;0.00;0.00;;;;;;;;;;5032363;28;20244;-91
2023/04/02 02:35:48;;;;;;;0.00;0.00;;;;;;;;;;5016259;28;20048;-90
2023/04/02 02:38:31;;;;;;;0.00;0.00;;;;;;;;;;5032709;28;20046;-89
2023/04/02 02:41:00;;;;;;;0.00;0.00;;;;;;;;;;5032818;28;20048;-88
2023/04/02 02:43:26;;;;;;;0.00;0.00;;;;;;;;;;5015818;28;20094;-90
2023/04/02 02:45:54;;;;;;;0.00;0.00;;;;;;;;;;5032441;28;20084;-89
2023/04/02 02:48:22;;;;;;;0.00;0.00;;;;;;;;;;5032261;28;20038;-90
2023/04/02 02:50:49;;;;;;;0.00;0.00;;;;;;;;;;5016038;28;20045;-90
2023/04/02 02:53:20;;;;;;;0.00;0.00;;;;;;;;;;5015859;28;20413;-90
2023/04/02 02:55:48;;;;;;;0.00;0.00;;;;;;;;;;5015983;28;20085;-89
2023/04/02 02:58:16;;;;;;;0.20;0.10;;;;;;;;;;5032048;28;20083;-88
2023/04/02 03:00:46;;;;;;;0.00;0.00;;;;;;;;;;5032223;28;20053;-88
2023/04/02 03:03:16;;;;;;;0.00;0.00;;;;;;;;;;5015890;28;20401;-89
2023/04/02 03:05:43;;;;;;;0.00;0.00;;;;;;;;;;5015618;28;20087;-90
2023/04/02 03:08:13;;;;;;;0.00;0.00;;;;;;;;;;5015636;28;20045;-89
2023/04/02 03:10:43;;;;;;;0.00;0.00;;;;;;;;;;5032005;28;20055;-90
2023/04/02 03:13:24;;;;;;;0.00;0.00;;;;;;;;;;5015469;28;20045;-90
2023/04/02 03:16:10;;;;;;;0.00;0.00;;;;;;;;;;5032098;28;20433;-89
2023/04/02 03:18:42;;;;;;;0.00;0.00;;;;;;;;;;5015406;28;20034;-89
2023/04/02 03:21:24;;;;;;;2.00;0.20;;;;;;;;;;5015518;28;20092;-90
2023/04/02 03:23:55;;;;;;;0.00;0.00;;;;;;;;;;5015166;28;20041;-89
2023/04/02 03:26:41;;;;;;;0.00;0.00;;;;;;;;;;5015352;28;20048;-89
2023/04/02 03:29:18;;;;;;;0.00;0.00;;;;;;;;;;5028890;28;20095;-87
2023/04/02 03:31:47;;;;;;;0.00;0.00;;;;;;;;;;5031709;28;20099;-88
2023/04/02 03:34:20;;;;;;;0.00;0.00;;;;;;;;;;5015029;28;20033;-90
2023/04/02 03:36:56;;;;;;;0.00;0.00;;;;;;;;;;5015638;28;20033;-89
2023/04/02 03:39:43;;;;;;;0.00;0.00;;;;;;;;;;5014851;28;20044;-89
2023/04/02 03:42:19;;;;;;;0.00;0.00;;;;;;;;;;5029320;28;20127;-89
2023/04/02 03:44:44;;;;;;;;;;;;;;;;;;5030861;28;20041;-90
2023/04/02 03:47:17;;;;;;;0.00;0.00;;;;;;;;;;5031704;28;20423;-90
2023/04/02 03:49:47;;;;;;;0.22;0.08;;;;;;;;;;5031504;28;20046;-89
2023/04/02 03:52:15;;;;;;;0.00;0.00;;;;;;;;;;5014984;28;20050;-90
2023/04/02 03:54:41;;;;;;;0.75;0.45;;;;;;;;;;5031414;28;20065;-89
2023/04/02 03:57:30;;;;;;;0.00;0.00;;;;;;;;;;5031242;28;20179;-89
2023/04/02 04:00:06;;;;;;;0.38;0.10;;;;;;;;;;5013747;28;20038;-89
2023/04/02 04:02:42;;;;;;;0.00;0.00;;;;;;;;;;4979095;28;20085;-90
2023/04/02 04:05:07;;;;;;;;;;;;;;;;;;4995625;28;20092;-89
2023/04/02 04:07:36;;;;;;;0.00;0.00;;;;;;;;;;4979149;28;19921;-90
2023/04/02 04:10:04;;;;;;;0.00;0.00;;;;;;;;;;4995158;28;20042;-89
2023/04/02 04:12:32;;;;;;;0.00;0.00;;;;;;;;;;4995152;28;20050;-89
2023/04/02 04:15:06;;;;;;;0.00;0.00;;;;;;;;;;4978772;28;20034;-89
2023/04/02 04:17:37;;;;;;;0.00;0.00;;;;;;;;;;4995511;28;20038;-89
2023/04/02 04:20:10;;;;;;;0.00;0.00;;;;;;;;;;4979131;28;20046;-89
2023/04/02 04:22:36;;;;;;;0.00;0.00;;;;;;;;;;4978498;28;20406;-89
2023/04/02 04:25:16;;;;;;;0.75;0.17;;;;;;;;;;4978751;28;20045;-90
2023/04/02 04:28:04;;;;;;;0.98;0.22;;;;;;;;;;4995436;28;20042;-90
2023/04/02 04:30:46;;;;;;;0.00;0.00;;;;;;;;;;4978792;28;20069;-90
2023/04/02 04:33:21;;;;;;;0.00;0.00;;;;;;;;;;4995042;28;20393;-90
2023/04/02 04:35:49;;;;;;;0.00;0.00;;;;;;;;;;4979258;28;20092;-90
2023/04/02 04:38:26;;;;;;;0.00;0.00;;;;;;;;;;4995182;28;20045;-90
2023/04/02 04:40:54;;;;;;;0.00;0.00;;;;;;;;;;4979026;28;20124;-89
2023/04/02 04:43:31;;;;;;;0.00;0.00;;;;;;;;;;4978858;28;20489;-90
2023/04/02 04:46:02;;;;;;;0.00;0.00;;;;;;;;;;4992197;28;20128;-89
2023/04/02 04:48:40;;;;;;;0.00;0.00;;;;;;;;;;4979331;28;20196;-89
2023/04/02 04:51:16;;;;;;;0.00;0.00;;;;;;;;;;4994812;28;20046;-90
2023/04/02 04:53:47;;;;;;;0.00;0.00;;;;;;;;;;4978243;28;20053;-89
2023/04/02 04:56:14;;;;;;;0.00;0.00;;;;;;;;;;4981868;28;20041;-91
2023/04/02 04:58:40;;;;;;;0.00;0.00;;;;;;;;;;4982362;28;20041;-88
2023/04/02 05:01:10;;;;;;;0.00;0.00;;;;;;;;;;5000470;28;20053;-91
2023/04/02 05:03:46;;;;;;;0.00;0.00;;;;;;;;;;5017840;28;20114;-89
2023/04/02 05:06:17;;;;;;;0.00;0.00;;;;;;;;;;5017703;28;20156;-89
2023/04/02 05:08:46;;;;;;;0.00;0.00;;;;;;;;;;5018013;28;20102;-88
2023/04/02 05:11:21;;;;;;;0.00;0.00;;;;;;;;;;5017812;28;20041;-90
2023/04/02 05:13:53;;;;;;;0.00;0.00;;;;;;;;;;5015245;28;20052;-89
2023/04/02 05:16:22;;;;;;;0.00;0.00;;;;;;;;;;5017841;28;20037;-90
2023/04/02 05:18:56;;;;;;;0.28;0.28;;;;;;;;;;5018208;28;20041;-89
2023/04/02 05:21:33;;;;;;;0.00;0.00;;;;;;;;;;5017726;28;20160;-88
2023/04/02 05:24:05;;;;;;;0.00;0.00;;;;;;;;;;5017935;28;20033;-90
2023/04/02 05:26:40;;;;;;;0.00;0.00;;;;;;;;;;5034246;28;20042;-89
2023/04/02 05:29:08;;;;;;;0.00;0.00;;;;;;;;;;5034545;28;20137;-89
2023/04/02 05:31:41;;;;;;;0.00;0.00;;;;;;;;;;5018448;28;20128;-90
2023/04/02 05:34:07;;;;;;;0.00;0.00;;;;;;;;;;5018011;28;20037;-89
2023/04/02 05:36:34;;;;;;;0.00;0.00;;;;;;;;;;5034313;28;20542;-89
2023/04/02 05:39:00;;;;;;;0.00;0.00;;;;;;;;;;5018104;28;20041;-89
2023/04/02 05:41:30;;;;;;;0.00;0.00;;;;;;;;;;5034177;28;20486;-91
2023/04/02 05:44:07;;;;;;;0.00;0.00;;;;;;;;;;5018243;28;20046;-90
2023/04/02 05:46:36;;;;;;;0.00;0.00;;;;;;;;;;5018032;28;20389;-91
2023/04/02 05:49:03;;;;;;;0.00;0.00;;;;;;;;;;5017772;28;20374;-89
2023/04/02 05:51:42;;;;;;;0.00;0.00;;;;;;;;;;5017484;28;20548;-90
2023/04/02 05:54:24;;;;;;;0.00;0.00;;;;;;;;;;5017250;28;20033;-89
2023/04/02 05:56:55;;;;;;;0.00;0.00;;;;;;;;;;5033913;28;20100;-90
2023/04/02 05:59:30;;;;;;;0.00;0.00;;;;;;;;;;5017426;28;20041;-89
2023/04/02 06:02:15;;;;;;;0.00;0.00;;;;;;;;;;5016960;28;20064;-92
2023/04/02 06:04:47;;;;;;;0.00;0.00;;;;;;;;;;5017237;28;20405;-89
2023/04/02 06:07:27;;;;;;;0.00;0.00;;;;;;;;;;5015831;28;20041;-89
2023/04/02 06:09:56;;;;;;;0.00;0.00;;;;;;;;;;5016886;28;20038;-89
2023/04/02 06:12:36;;;;;;;0.00;0.00;;;;;;;;;;5016454;28;20124;-90
2023/04/02 06:15:05;;;;;;;0.00;0.00;;;;;;;;;;5030532;28;20037;-90
2023/04/02 06:17:33;;;;;;;0.00;0.00;;;;;;;;;;5016838;28;20076;-90
2023/04/02 06:20:00;;;;;;;0.00;0.00;;;;;;;;;;5017144;28;20038;-89
2023/04/02 06:22:32;;;;;;;0.20;0.03;;;;;;;;;;5033911;28;20041;-91
2023/04/02 06:25:18;;;;;;;0.00;0.00;;;;;;;;;;5033883;28;20374;-89
2023/04/02 06:27:45;;;;;;;0.00;0.00;;;;;;;;;;5006364;28;20057;-89
2023/04/02 06:30:20;;;;;;;0.00;0.00;;;;;;;;;;5016330;28;20464;-89
2023/04/02 06:32:46;;;;;;;0.00;0.00;;;;;;;;;;5013653;28;20037;-89
2023/04/02 06:35:13;;;;;;;0.00;0.00;;;;;;;;;;5016323;28;20037;-90
2023/04/02 06:37:39;;;;;;;0.00;0.00;;;;;;;;;;5016701;28;20393;-89
2023/04/02 06:40:16;;;;;;;0.00;0.00;;;;;;;;;;5032857;28;20041;-89
2023/04/02 06:42:43;;;;;;;0.00;0.00;;;;;;;;;;5016206;28;20038;-90
2023/04/02 06:45:16;;;;;;;0.00;0.00;;;;;;;;;;5016318;28;20041;-91
2023/04/02 06:47:45;;;;;;;0.00;0.00;;;;;;;;;;5016090;28;20075;-91
2023/04/02 06:50:25;;;;;;;0.00;0.00;;;;;;;;;;5016542;28;20207;-92
2023/04/02 06:52:59;;;;;;;0.00;0.00;;;;;;;;;;5033459;28;20053;-90
2023/04/02 06:55:34;;;;;;;0.00;0.00;;;;;;;;;;5016074;28;20500;-89
2023/04/02 06:58:00;;;;;;;0.00;0.00;;;;;;;;;;5016162;28;20560;-89
2023/04/02 07:00:37;;;;;;;0.00;0.00;;;;;;;;;;5016388;28;20096;-90
2023/04/02 07:03:06;;;;;;;0.43;0.43;;;;;;;;;;5015850;28;20045;-91
2023/04/02 07:05:32;;;;;;;0.00;0.00;;;;;;;;;;5015973;28;20046;-93
2023/04/02 07:07:58;;;;;;;0.00;0.00;;;;;;;;;;5032875;28;20083;-90
2023/04/02 07:10:24;;;;;;;0.10;0.00;;;;;;;;;;5032381;28;20112;-91
2023/04/02 07:12:50;;;;;;;0.00;0.00;;;;;;;;;;5015691;28;20049;-89
2023/04/02 07:15:18;;;;;;;0.00;0.00;;;;;;;;;;5015977;28;20064;-90
2023/04/02 07:17:45;;;;;;;0.00;0.00;;;;;;;;;;5014957;28;20045;-89
2023/04/02 07:20:31;;;;;;;0.00;0.00;;;;;;;;;;5015434;28;20093;-90
2023/04/02 07:22:57;;;;;;;0.00;0.00;;;;;;;;;;5015264;28;20041;-89
2023/04/02 07:25:23;;;;;;;0.00;0.00;;;;;;;;;;5015666;28;20077;-92
2023/04/02 07:27:50;;;;;;;0.00;0.00;;;;;;;;;;5014971;28;20107;-88
2023/04/02 07:30:16;;;;;;;0.43;0.43;;;;;;;;;;5031916;28;20064;-90
2023/04/02 07:32:42;;;;;;;0.00;0.00;;;;;;;;;;5032525;28;20049;-90
2023/04/02 07:35:09;;;;;;;0.00;0.00;;;;;;;;;;5032462;28;20422;-88
2023/04/02 07:37:35;;;;;;;0.00;0.00;;;;;;;;;;5015994;28;20049;-89
2023/04/02 07:40:02;;;;;;;0.00;0.00;;;;;;;;;;5015408;28;20045;-88
2023/04/02 07:42:28;;;;;;;0.00;0.00;;;;;;;;;;5031280;28;20045;-88
2023/04/02 07:44:54;;;;;;;0.00;0.00;;;;;;;;;;5015412;28;20037;-89
2023/04/02 07:47:20;;;;;;;0.00;0.00;;;;;;;;;;5031784;28;20084;-89
2023/04/02 07:49:46;;;;;;;0.17;0.00;;;;;;;;;;5031857;28;20504;-88
2023/04/02 07:52:12;;;;;;;0.00;0.00;;;;;;;;;;5014831;28;20057;-89
2023/04/02 07:54:38;;;;;;;0.38;0.10;;;;;;;;;;5015062;28;20059;-88
2023/04/02 07:57:05;;;;;;;0.00;0.00;;;;;;;;;;5016288;28;20045;-89
2023/04/02 07:59:31;;;;;;;0.00;0.00;;;;;;;;;;5016386;28;20041;-90
2023/04/02 08:01:57;;;;;;;0.00;0.00;;;;;;;;;;5015483;28;20137;-89
2023/04/02 08:04:23;;;;;;;0.05;0.03;;;;;;;;;;5016058;28;20049;-89
2023/04/02 08:06:51;;;;;;;0.00;0.00;;;;;;;;;;5031959;28;20401;-90
2023/04/02 08:09:17;;;;;;;0.00;0.00;;;;;;;;;;5015458;28;20042;-89
2023/04/02 08:11:45;;;;;;;0.05;0.05;;;;;;;;;;5015408;28;20420;-88
2023/04/02 08:14:11;;;;;;;0.00;0.00;;;;;;;;;;5015111;28;20045;-88
2023/04/02 08:17:03;;;;;;;0.00;0.00;;;;;;;;;;5015365;28;20404;-89
2023/04/02 08:19:29;;;;;;;0.00;0.00;;;;;;;;;;5012948;28;20129;-88
2023/04/02 08:21:56;;;;;;;0.00;0.00;;;;;;;;;;5031765;28;20472;-89
2023/04/02 08:24:22;;;;;;;0.00;0.00;;;;;;;;;;5015055;28;20148;-88
2023/04/02 08:26:50;;;;;;;0.20;0.10;;;;;;;;;;5014851;28;20183;-89
2023/04/02 08:29:16;;;;;;;0.20;0.10;;;;;;;;;;5032547;28;20064;-89
2023/04/02 08:31:42;;;;;;;0.08;0.08;;;;;;;;;;5035846;28;20117;-88
2023/04/02 08:34:08;;;;;;;0.15;0.15;;;;;;;;;;5035910;28;20094;-89
2023/04/02 08:36:36;;;;;;;0.00;0.00;;;;;;;;;;5035590;28;20520;-89
2023/04/02 08:39:03;;;;;;;0.10;0.00;;;;;;;;;;5019514;28;20079;-89
2023/04/02 08:41:35;;;;;;;0.20;0.10;;;;;;;;;;5019385;28;20132;-89
2023/04/02 08:44:24;;;;;;;0.00;0.00;;;;;;;;;;5018940;28;20076;-89
2023/04/02 08:47:02;;;;;;;0.00;0.00;;;;;;;;;;5015719;28;20041;-88
2023/04/02 08:49:37;;;;;;;0.00;0.00;;;;;;;;;;5019704;28;20389;-89
2023/04/02 08:52:03;;;;;;;0.00;0.00;;;;;;;;;;5019961;28;20049;-89
2023/04/02 08:54:32;;;;;;;0.00;0.00;;;;;;;;;;5036586;28;20041;-88
2023/04/02 08:57:04;;;;;;;0.00;0.00;;;;;;;;;;5018870;28;20029;-88
2023/04/02 08:59:32;;;;;;;0.32;0.05;;;;;;;;;;5035170;28;20046;-88
2023/04/02 09:02:01;;;;;;;0.00;0.00;;;;;;;;;;5034056;28;20073;-89
2023/04/02 09:04:27;;;;;;;0.00;0.00;;;;;;;;;;5034231;28;20037;-89
2023/04/02 09:06:54;;;;;;;0.00;0.00;;;;;;;;;;5017891;28;20045;-90
2023/04/02 09:09:21;;;;;;;0.00;0.00;;;;;;;;;;5034460;28;20132;-88
2023/04/02 09:11:59;;;;;;;0.95;0.85;;;;;;;;;;5017483;28;20439;-89
2023/04/02 09:14:34;;;;;;;0.00;0.00;;;;;;;;;;5034849;28;20147;-88
2023/04/02 09:17:02;;;;;;;2.75;1.88;;;;;;;;;;5017255;28;20361;-89
2023/04/02 09:19:34;;;;;;;0.00;0.00;;;;;;;;;;5034596;28;20044;-87
2023/04/02 09:22:19;;;;;;;0.00;0.00;;;;;;;;;;5017327;28;20041;-88
2023/04/02 09:24:45;;;;;;;0.13;0.05;;;;;;;;;;5017476;28;20096;-88
2023/04/02 09:27:21;;;;;;;0.00;0.00;;;;;;;;;;5033706;28;20041;-88
2023/04/02 09:29:51;;;;;;;0.60;0.60;;;;;;;;;;5034206;28;20074;-89
2023/04/02 09:32:35;;;;;;;0.00;0.00;;;;;;;;;;5017110;28;20132;-89
2023/04/02 09:35:22;;;;;;;0.00;0.00;;;;;;;;;;5033987;28;20041;-88
2023/04/02 09:38:08;;;;;;;0.00;0.00;;;;;;;;;;5017277;28;20060;-88
2023/04/02 09:40:54;;;;;;;0.00;0.00;;;;;;;;;;5033819;28;20041;-88
2023/04/02 09:43:20;;;;;;;0.25;0.20;;;;;;;;;;5006879;28;20041;-88
2023/04/02 09:46:03;;;;;;;0.00;0.00;;;;;;;;;;5018003;28;20173;-89
2023/04/02 09:48:33;;;;;;;0.05;0.00;;;;;;;;;;5033376;28;20037;-88
2023/04/02 09:51:06;;;;;;;0.00;0.00;;;;;;;;;;5033389;28;20045;-87
2023/04/02 09:53:36;;;;;;;0.00;0.00;;;;;;;;;;5033170;28;20065;-88
2023/04/02 09:56:16;;;;;;;0.00;0.00;;;;;;;;;;5033595;28;20038;-88
2023/04/02 09:58:43;;;;;;;0.00;0.00;;;;;;;;;;5033207;28;20073;-88
2023/04/02 10:01:26;;;;;;;0.00;0.00;;;;;;;;;;5032907;28;20132;-88
2023/04/02 10:03:52;;;;;;;0.00;0.00;;;;;;;;;;5032841;28;20540;-88
2023/04/02 10:06:18;;;;;;;0.00;0.00;;;;;;;;;;5033012;28;20091;-88
2023/04/02 10:08:45;;;;;;;0.00;0.00;;;;;;;;;;5032677;28;20141;-87
2023/04/02 10:11:18;;;;;;;0.00;0.00;;;;;;;;;;5033096;28;20052;-88
2023/04/02 10:13:55;;;;;;;0.10;0.00;;;;;;;;;;5016281;28;20095;-88
2023/04/02 10:16:41;;;;;;;0.00;0.00;;;;;;;;;;5016707;28;20439;-90
2023/04/02 10:19:16;;;;;;;0.00;0.00;;;;;;;;;;5016136;28;20050;-87
2023/04/02 10:21:43;;;;;;;0.00;0.00;;;;;;;;;;5032910;28;20061;-88
2023/04/02 10:24:13;;;;;;;0.00;0.00;;;;;;;;;;5015925;28;20037;-87
2023/04/02 10:26:49;;;;;;;0.00;0.00;;;;;;;;;;5032769;28;20048;-88
2023/04/02 10:29:20;;;;;;;1.10;1.00;;;;;;;;;;5015896;28;20155;-87
2023/04/02 10:31:52;;;;;;;0.00;0.00;;;;;;;;;;5016077;28;20041;-87
2023/04/02 10:34:26;;;;;;;0.00;0.00;;;;;;;;;;5032377;28;20475;-87
2023/04/02 10:36:56;;;;;;;0.00;0.00;;;;;;;;;;5032706;28;20049;-89
2023/04/02 10:39:26;;;;;;;1.10;0.08;;;;;;;;;;5015553;28;20037;-87
2023/04/02 10:42:10;;;;;;;0.00;0.00;;;;;;;;;;5016264;28;20045;-87
2023/04/02 10:44:47;;;;;;;0.00;0.00;;;;;;;;;;5033020;28;20041;-88
2023/04/02 10:47:21;;;;;;;0.00;0.00;;;;;;;;;;5032795;28;20041;-87
2023/04/02 10:49:57;;;;;;;0.00;0.00;;;;;;;;;;5032327;28;20392;-88
2023/04/02 10:52:28;;;;;;;0.00;0.00;;;;;;;;;;5015625;28;20430;-88
2023/04/02 10:54:56;;;;;;;0.00;0.00;;;;;;;;;;5032209;28;20052;-87
2023/04/02 10:57:33;;;;;;;0.00;0.00;;;;;;;;;;5032407;28;20044;-88
2023/04/02 11:00:22;;;;;;;0.00;0.00;;;;;;;;;;5030396;28;20045;-87
2023/04/02 11:03:05;;;;;;;0.00;0.00;;;;;;;;;;4996784;28;20103;-87
2023/04/02 11:05:42;;;;;;;0.00;0.00;;;;;;;;;;4996402;28;20397;-87
2023/04/02 11:08:28;;;;;;;0.00;0.00;;;;;;;;;;4996180;28;20045;-88
2023/04/02 11:11:12;;;;;;;0.00;0.00;;;;;;;;;;4995784;28;20493;-87
2023/04/02 11:13:41;;;;;;;0.22;0.20;;;;;;;;;;4979406;28;20046;-87
2023/04/02 11:16:07;;;;;;;0.00;0.00;;;;;;;;;;4979636;28;20038;-87
2023/04/02 11:18:37;;;;;;;0.00;0.00;;;;;;;;;;4996048;28;20045;-87
2023/04/02 11:21:22;;;;;;;0.00;0.00;;;;;;;;;;4979406;28;20049;-87
2023/04/02 11:24:01;;;;;;;0.00;0.00;;;;;;;;;;4979993;28;20088;-87
2023/04/02 11:26:33;;;;;;;0.00;0.00;;;;;;;;;;4996290;28;20045;-88
2023/04/02 11:29:14;;;;;;;0.00;0.00;;;;;;;;;;4996052;28;20180;-88
2023/04/02 11:31:41;;;;;;;0.00;0.00;;;;;;;;;;4979104;28;20038;-87
2023/04/02 11:34:11;;;;;;;0.00;0.00;;;;;;;;;;4995287;28;20046;-87
2023/04/02 11:36:50;;;;;;;0.00;0.00;;;;;;;;;;4979119;28;20065;-87
2023/04/02 11:39:34;;;;;;;0.00;0.00;;;;;;;;;;4979236;28;20041;-88
2023/04/02 11:42:00;;;;;;;0.00;0.00;;;;;;;;;;4995402;28;20046;-88
2023/04/02 11:44:26;;;;;;;0.00;0.00;;;;;;;;;;4979352;28;20045;-87
2023/04/02 11:46:52;;;;;;;0.00;0.00;;;;;;;;;;4995540;28;20405;-88
2023/04/02 11:49:38;;;;;;;0.00;0.00;;;;;;;;;;4979140;28;20114;-88
2023/04/02 11:52:18;;;;;;;0.00;0.00;;;;;;;;;;4995180;28;20192;-88
2023/04/02 11:54:44;;;;;;;0.00;0.00;;;;;;;;;;4995630;28;20046;-88
2023/04/02 11:57:23;;;;;;;0.63;0.63;;;;;;;;;;4978969;28;20034;-88
2023/04/02 11:59:55;;;;;;;0.00;0.00;;;;;;;;;;4995275;28;20041;-88
2023/04/02 12:02:24;;;;;;;0.10;0.10;;;;;;;;;;4995036;28;20119;-87
2023/04/02 12:05:02;;;;;;;0.00;0.00;;;;;;;;;;4980170;28;20042;-86
2023/04/02 12:07:33;;;;;;;0.00;0.00;;;;;;;;;;4983534;28;20049;-87
2023/04/02 12:10:01;;;;;;;0.00;0.00;;;;;;;;;;4983160;28;20354;-88
2023/04/02 12:12:40;;;;;;;0.10;0.10;;;;;;;;;;4998850;28;20038;-88
2023/04/02 12:15:08;;;;;;;0.00;0.00;;;;;;;;;;4999099;28;20046;-87
2023/04/02 12:17:38;;;;;;;0.00;0.00;;;;;;;;;;4998998;28;20613;-87
2023/04/02 12:20:08;;;;;;;0.00;0.00;;;;;;;;;;4998924;28;20056;-89
2023/04/02 12:22:35;;;;;;;0.00;0.00;;;;;;;;;;4982685;28;20494;-88
2023/04/02 12:25:04;;;;;;;0.00;0.00;;;;;;;;;;4982354;28;20042;-87
2023/04/02 12:27:31;;;;;;;0.20;0.15;;;;;;;;;;4982315;28;20053;-88
2023/04/02 12:30:15;;;;;;;0.00;0.00;;;;;;;;;;4982637;28;20120;-87
2023/04/02 12:32:41;;;;;;;0.00;0.00;;;;;;;;;;4998448;28;20481;-88
2023/04/02 12:35:25;;;;;;;0.00;0.00;;;;;;;;;;4998656;28;20548;-88
2023/04/02 12:37:52;;;;;;;0.00;0.00;;;;;;;;;;4998922;28;20417;-88
2023/04/02 12:40:18;;;;;;;0.00;0.00;;;;;;;;;;4982298;28;20043;-88
2023/04/02 12:42:44;;;;;;;0.00;0.00;;;;;;;;;;4998025;28;20042;-88
2023/04/02 12:45:22;;;;;;;0.00;0.00;;;;;;;;;;4982040;28;20124;-88
2023/04/02 12:47:48;;;;;;;0.00;0.00;;;;;;;;;;4982069;28;20100;-88
2023/04/02 12:50:15;;;;;;;0.00;0.00;;;;;;;;;;4998323;28;20053;-90
2023/04/02 12:52:45;;;;;;;0.00;0.00;;;;;;;;;;4981810;28;20042;-89
2023/04/02 12:55:21;;;;;;;0.00;0.00;;;;;;;;;;4998428;28;20042;-89
2023/04/02 12:57:48;;;;;;;0.00;0.00;;;;;;;;;;4981723;28;20533;-88
2023/04/02 13:00:21;;;;;;;0.00;0.00;;;;;;;;;;4985942;28;20141;-88
2023/04/02 13:02:51;;;;;;;0.00;0.00;;;;;;;;;;5033921;28;20068;-88
2023/04/02 13:05:32;;;;;;;0.00;0.00;;;;;;;;;;5034245;28;20404;-87
2023/04/02 13:07:58;;;;;;;0.00;0.00;;;;;;;;;;5034178;28;20049;-88
2023/04/02 13:10:26;;;;;;;0.00;0.00;;;;;;;;;;5033778;28;20045;-88
2023/04/02 13:13:01;;;;;;;0.00;0.00;;;;;;;;;;5017589;28;20464;-92
2023/04/02 13:15:30;;;;;;;0.00;0.00;;;;;;;;;;5017439;28;20124;-88
2023/04/02 13:18:05;;;;;;;0.00;0.00;;;;;;;;;;5017316;28;20049;-88
2023/04/02 13:20:41;;;;;;;0.10;0.10;;;;;;;;;;5033723;28;20106;-87
2023/04/02 13:23:24;;;;;;;0.00;0.00;;;;;;;;;;5016893;28;20041;-88
2023/04/02 13:25:50;;;;;;;0.00;0.00;;;;;;;;;;5033396;28;20050;-88
2023/04/02 13:28:16;;;;;;;0.00;0.00;;;;;;;;;;5033836;28;20044;-88
2023/04/02 13:30:42;;;;;;;0.00;0.00;;;;;;;;;;5033489;28;20041;-89
2023/04/02 13:33:08;;;;;;;0.00;0.00;;;;;;;;;;5033144;28;20108;-88
2023/04/02 13:35:35;;;;;;;0.00;0.00;;;;;;;;;;5016862;28;20049;-89
2023/04/02 13:38:01;;;;;;;0.00;0.00;;;;;;;;;;5016818;28;20033;-87
2023/04/02 13:40:28;;;;;;;0.00;0.00;;;;;;;;;;5033491;28;20171;-87
2023/04/02 13:42:54;;;;;;;0.55;0.20;;;;;;;;;;5016576;28;20084;-88
2023/04/02 13:45:27;;;;;;;0.00;0.00;;;;;;;;;;5016883;28;20052;-88
2023/04/02 13:47:56;;;;;;;0.00;0.00;;;;;;;;;;5032975;28;20041;-88
2023/04/02 13:50:22;;;;;;;0.00;0.00;;;;;;;;;;5016632;28;20041;-87
2023/04/02 13:52:50;;;;;;;0.00;0.00;;;;;;;;;;5032677;28;20068;-88
2023/04/02 13:55:17;;;;;;;0.00;0.00;;;;;;;;;;5032921;28;20037;-88
2023/04/02 13:57:43;;;;;;;0.00;0.00;;;;;;;;;;5032893;28;20075;-89
2023/04/02 14:00:10;;;;;;;0.00;0.00;;;;;;;;;;5013917;28;20054;-88
2023/04/02 14:02:42;;;;;;;0.00;0.00;;;;;;;;;;4996826;28;20132;-89
2023/04/02 14:05:13;;;;;;;0.00;0.00;;;;;;;;;;4980897;28;20042;-88
2023/04/02 14:07:54;;;;;;;0.00;0.00;;;;;;;;;;4996707;28;20042;-88
2023/04/02 14:10:39;;;;;;;0.00;0.00;;;;;;;;;;4996938;28;20084;-88
2023/04/02 14:13:17;;;;;;;0.00;0.00;;;;;;;;;;4980521;28;20212;-88
2023/04/02 14:15:46;;;;;;;0.00;0.00;;;;;;;;;;4980874;28;20049;-88
2023/04/02 14:18:12;;;;;;;0.00;0.00;;;;;;;;;;4996604;28;20042;-89
2023/04/02 14:21:03;;;;;;;0.10;0.00;;;;;;;;;;4980890;28;20080;-87
2023/04/02 14:23:38;;;;;;;0.00;0.00;;;;;;;;;;4996730;28;20042;-87
2023/04/02 14:26:16;;;;;;;0.00;0.00;;;;;;;;;;4996558;28;20049;-88
2023/04/02 14:29:01;;;;;;;0.00;0.00;;;;;;;;;;4995632;28;20042;-88
2023/04/02 14:31:35;;;;;;;0.00;0.00;;;;;;;;;;4979879;28;20145;-87
2023/04/02 14:34:20;;;;;;;0.00;0.00;;;;;;;;;;4980200;28;20113;-88
2023/04/02 14:37:03;;;;;;;0.00;0.00;;;;;;;;;;4979603;28;20080;-87
2023/04/02 14:39:29;;;;;;;0.00;0.00;;;;;;;;;;4979883;28;20037;-87
2023/04/02 14:42:01;;;;;;;0.00;0.00;;;;;;;;;;4995754;28;20046;-88
2023/04/02 14:44:30;;;;;;;0.00;0.00;;;;;;;;;;4995888;28;20394;-88
2023/04/02 14:47:00;;;;;;;0.00;0.00;;;;;;;;;;4995904;28;20108;-88
2023/04/02 14:49:29;;;;;;;0.00;0.00;;;;;;;;;;4980001;28;20037;-87
2023/04/02 14:52:00;;;;;;;0.30;0.22;;;;;;;;;;4995907;28;20046;-87
2023/04/02 14:54:36;;;;;;;0.00;0.00;;;;;;;;;;4996162;28;20033;-88
2023/04/02 14:57:20;;;;;;;0.00;0.00;;;;;;;;;;4995730;28;20133;-88
2023/04/02 14:59:55;;;;;;;0.00;0.00;;;;;;;;;;4995561;28;20042;-88
2023/04/02 15:02:34;;;;;;;0.00;0.00;;;;;;;;;;4979287;28;20493;-88
2023/04/02 15:05:03;;;;;;;0.00;0.00;;;;;;;;;;4979479;28;20157;-88
2023/04/02 15:07:35;;;;;;;0.00;0.00;;;;;;;;;;4995416;28;20038;-87
2023/04/02 15:10:40;;;;;;;0.00;0.00;;;;;;;;;;4979234;28;20049;-87
2023/04/02 15:13:10;;;;;;;0.00;0.00;;;;;;;;;;4898501;29;20051;-87